Time;durP1;ratioP1;P1;durP2;ratioP2;P2;SDS_P1;SDS_P2;PMS_P1;PMS_P2;Temp;Humidity;BMP_temperature;BMP_pressure;BME280_temperature;BME280_humidity;BME280_pressure;Samples;Min_cycle;Max_cycle;Signal;HPM_P1;HPM_P2
2022/08/15 00:00:40;;;;;;;8.77;7.38;;;29.40;54.80;;;;;;5115831;28;20085;-75
2022/08/15 00:03:18;;;;;;;11.13;8.03;;;29.50;54.60;;;;;;5115805;28;20102;-75
2022/08/15 00:05:45;;;;;;;8.75;7.13;;;29.50;54.80;;;;;;5115807;28;20480;-77
2022/08/15 00:08:11;;;;;;;9.30;7.65;;;29.40;54.90;;;;;;5115886;28;20023;-75
2022/08/15 00:10:37;;;;;;;9.38;7.40;;;29.40;55.10;;;;;;5115618;28;20028;-76
2022/08/15 00:13:15;;;;;;;9.70;7.78;;;29.50;55.10;;;;;;5115653;28;20028;-76
2022/08/15 00:15:42;;;;;;;9.77;7.90;;;29.60;55.00;;;;;;5115698;28;20063;-75
2022/08/15 00:18:08;;;;;;;9.35;7.95;;;29.60;55.10;;;;;;5115186;28;20028;-75
2022/08/15 00:20:37;;;;;;;8.88;7.75;;;29.50;55.30;;;;;;5115762;28;20426;-75
2022/08/15 00:23:06;;;;;;;9.63;7.93;;;29.50;55.30;;;;;;5115486;28;20489;-76
2022/08/15 00:25:31;;;;;;;10.35;8.27;;;29.50;55.60;;;;;;5115238;28;20035;-77
2022/08/15 00:27:57;;;;;;;10.35;8.20;;;29.50;55.80;;;;;;5115375;28;20031;-75
2022/08/15 00:30:24;;;;;;;9.68;7.57;;;29.60;55.50;;;;;;5114545;28;20498;-76
2022/08/15 00:32:57;;;;;;;9.63;8.10;;;29.50;55.30;;;;;;5115044;28;20020;-76
2022/08/15 00:35:36;;;;;;;10.38;7.85;;;29.30;55.60;;;;;;5115264;28;20045;-75
2022/08/15 00:38:06;;;;;;;10.95;7.13;;;29.30;55.50;;;;;;5114746;28;20546;-75
2022/08/15 00:41:39;;;;;;;11.18;7.50;;;29.40;55.20;;;;;;5115166;28;20066;-75
2022/08/15 00:43:23;;;;;;;8.75;7.38;;;29.30;54.80;;;;;;5113284;28;20035;-75
2022/08/15 00:45:49;;;;;;;10.40;8.10;;;29.40;54.60;;;;;;5096780;28;20030;-76
2022/08/15 00:51:02;;;;;;;9.13;7.32;;;29.20;55.20;;;;;;5115000;28;20031;-76
2022/08/15 00:53:28;;;;;;;9.80;8.35;;;29.20;55.20;;;;;;5114865;28;20027;-76
2022/08/15 00:55:56;;;;;;;8.77;7.43;;;29.30;55.10;;;;;;5114625;28;20043;-75
2022/08/15 00:58:22;;;;;;;8.82;7.80;;;29.30;55.10;;;;;;5114668;28;20042;-75
2022/08/15 01:00:49;;;;;;;10.48;7.85;;;29.20;55.30;;;;;;5096528;28;20023;-76
2022/08/15 01:03:26;;;;;;;10.02;8.02;;;29.30;55.10;;;;;;5114383;28;20032;-75
2022/08/15 01:05:57;;;;;;;9.45;8.25;;;29.40;55.10;;;;;;5114647;28;20019;-76
2022/08/15 01:08:27;;;;;;;10.60;7.90;;;29.40;55.10;;;;;;5114668;28;20169;-75
2022/08/15 01:10:55;;;;;;;10.70;8.80;;;29.30;55.00;;;;;;5114795;28;20031;-76
2022/08/15 01:13:20;;;;;;;9.60;7.68;;;29.30;55.00;;;;;;5114568;28;20342;-75
2022/08/15 01:15:46;;;;;;;8.98;7.68;;;29.10;55.20;;;;;;5114463;28;20494;-75
2022/08/15 01:18:12;;;;;;;9.57;7.68;;;28.80;55.80;;;;;;5114449;28;20043;-75
2022/08/15 01:20:41;;;;;;;9.27;7.60;;;28.70;56.10;;;;;;5114595;28;20020;-75
2022/08/15 01:23:34;;;;;;;11.10;8.48;;;28.70;56.20;;;;;;5114185;28;20080;-76
2022/08/15 01:26:05;;;;;;;9.25;8.15;;;28.80;55.70;;;;;;5096029;28;20030;-76
2022/08/15 01:28:38;;;;;;;10.57;8.32;;;28.90;55.20;;;;;;5114078;28;20420;-77
2022/08/15 01:31:08;;;;;;;9.57;8.20;;;28.80;55.10;;;;;;5114171;28;20031;-75
2022/08/15 01:33:38;;;;;;;10.38;8.23;;;28.70;55.30;;;;;;5095937;28;20073;-75
2022/08/15 01:36:05;;;;;;;8.85;7.90;;;28.60;55.30;;;;;;5095607;28;20470;-76
2022/08/15 01:38:37;;;;;;;9.93;8.13;;;28.30;55.70;;;;;;5113935;28;20039;-75
2022/08/15 01:41:21;;;;;;;10.88;8.13;;;28.00;56.10;;;;;;5095448;28;20050;-76
2022/08/15 01:44:26;;;;;;;10.55;8.38;;;28.20;55.80;;;;;;5113917;28;20031;-76
2022/08/15 01:47:07;;;;;;;10.00;8.57;;;28.40;55.50;;;;;;5092109;28;20057;-75
2022/08/15 01:49:51;;;;;;;9.55;8.25;;;28.50;55.40;;;;;;5113604;28;20019;-76
2022/08/15 01:52:19;;;;;;;9.93;8.35;;;28.70;55.10;;;;;;5113787;28;20062;-76
2022/08/15 01:54:46;;;;;;;9.57;8.05;;;28.80;55.00;;;;;;5113378;28;20019;-75
2022/08/15 01:57:12;;;;;;;12.30;9.18;;;28.50;55.20;;;;;;5113744;28;20019;-75
2022/08/15 01:59:38;;;;;;;12.32;8.48;;;28.40;55.20;;;;;;5113665;28;20039;-76
2022/08/15 02:02:11;;;;;;;10.25;8.10;;;28.50;55.20;;;;;;5113597;28;20045;-76
2022/08/15 02:04:40;;;;;;;10.10;8.38;;;28.50;55.10;;;;;;5095635;28;20473;-76
2022/08/15 02:07:12;;;;;;;10.25;8.10;;;28.60;55.00;;;;;;5113716;28;20015;-75
2022/08/15 02:09:41;;;;;;;10.45;8.27;;;28.60;54.90;;;;;;5113441;28;20092;-75
2022/08/15 02:12:08;;;;;;;11.68;8.73;;;28.40;55.10;;;;;;5113501;28;20024;-75
2022/08/15 02:14:35;;;;;;;9.48;7.93;;;28.10;55.80;;;;;;5113563;28;20020;-75
2022/08/15 02:17:03;;;;;;;11.10;8.45;;;28.00;56.20;;;;;;5113288;28;20024;-75
2022/08/15 02:19:29;;;;;;;10.93;9.00;;;28.10;56.30;;;;;;5113156;28;20393;-75
2022/08/15 02:21:55;;;;;;;11.57;8.57;;;28.20;56.30;;;;;;5113196;28;20517;-75
2022/08/15 02:24:23;;;;;;;11.85;9.00;;;28.30;56.00;;;;;;5113123;28;20520;-76
2022/08/15 02:26:52;;;;;;;11.88;8.95;;;28.40;55.80;;;;;;5113593;28;20024;-77
2022/08/15 02:29:19;;;;;;;11.13;9.00;;;28.40;56.10;;;;;;5113270;28;20059;-76
2022/08/15 02:31:45;;;;;;;11.40;8.68;;;28.40;56.10;;;;;;5113038;28;20024;-75
2022/08/15 02:34:11;;;;;;;11.05;8.95;;;28.30;55.80;;;;;;5113322;28;20035;-75
2022/08/15 02:36:38;;;;;;;12.43;9.15;;;28.40;55.70;;;;;;5113111;28;20535;-76
2022/08/15 02:39:07;;;;;;;9.70;8.70;;;28.30;56.10;;;;;;5113026;28;20076;-75
2022/08/15 02:41:40;;;;;;;10.20;8.82;;;28.20;56.40;;;;;;5113116;28;20019;-75
2022/08/15 02:44:07;;;;;;;11.20;8.65;;;28.20;56.50;;;;;;5113173;28;20377;-76
2022/08/15 02:46:33;;;;;;;10.05;8.40;;;28.20;56.30;;;;;;5112889;28;20031;-76
2022/08/15 02:49:02;;;;;;;10.85;8.55;;;28.20;56.40;;;;;;5113274;28;20420;-76
2022/08/15 02:51:29;;;;;;;15.43;9.30;;;28.00;57.20;;;;;;5113187;28;20034;-76
2022/08/15 02:53:55;;;;;;;11.23;9.00;;;28.00;57.10;;;;;;5094576;28;20088;-76
2022/08/15 02:56:25;;;;;;;10.63;9.40;;;28.00;56.80;;;;;;5113074;28;20043;-76
2022/08/15 02:58:51;;;;;;;11.02;9.35;;;28.00;56.90;;;;;;5113102;28;20035;-76
2022/08/15 03:01:19;;;;;;;13.98;9.43;;;28.10;56.90;;;;;;5112895;28;20023;-76
2022/08/15 03:03:51;;;;;;;11.90;9.50;;;28.20;56.90;;;;;;5113112;28;20566;-76
2022/08/15 03:06:19;;;;;;;11.73;9.30;;;28.20;57.00;;;;;;5114699;28;20030;-76
2022/08/15 03:08:45;;;;;;;11.23;8.82;;;28.10;57.00;;;;;;5116920;28;20033;-76
2022/08/15 03:11:13;;;;;;;11.48;9.43;;;28.10;57.00;;;;;;5117025;28;20016;-75
2022/08/15 03:13:40;;;;;;;11.05;9.35;;;28.20;56.90;;;;;;5116728;28;20063;-75
2022/08/15 03:16:07;;;;;;;12.00;10.00;;;28.00;56.90;;;;;;5116718;28;20024;-76
2022/08/15 03:18:34;;;;;;;11.73;9.55;;;27.90;57.30;;;;;;5116699;28;20027;-76
2022/08/15 03:21:08;;;;;;;9.80;8.48;;;27.80;57.20;;;;;;5116641;28;20016;-75
2022/08/15 03:23:34;;;;;;;12.45;9.23;;;27.60;57.60;;;;;;5116777;28;20042;-76
2022/08/15 03:26:02;;;;;;;12.27;9.40;;;27.40;58.50;;;;;;5116495;28;20020;-75
2022/08/15 03:28:32;;;;;;;11.02;9.23;;;27.50;58.30;;;;;;5116285;28;20419;-75
2022/08/15 03:31:00;;;;;;;13.18;9.20;;;27.60;57.90;;;;;;5116615;28;20359;-75
2022/08/15 03:33:28;;;;;;;10.00;8.90;;;27.80;57.50;;;;;;5116602;28;20028;-76
2022/08/15 03:35:54;;;;;;;11.43;9.65;;;27.80;57.60;;;;;;5116288;28;20038;-76
2022/08/15 03:38:20;;;;;;;10.65;8.90;;;27.80;57.40;;;;;;5116486;28;20469;-75
2022/08/15 03:40:48;;;;;;;12.20;9.38;;;27.80;57.60;;;;;;5116255;28;20035;-75
2022/08/15 03:43:21;;;;;;;10.73;9.13;;;27.80;57.50;;;;;;5116275;28;20031;-76
2022/08/15 03:45:51;;;;;;;9.43;8.20;;;27.80;57.40;;;;;;5116301;28;20019;-75
2022/08/15 03:48:18;;;;;;;10.07;8.88;;;27.90;57.30;;;;;;5116254;28;20026;-75
2022/08/15 03:50:45;;;;;;;13.20;9.57;;;27.80;57.60;;;;;;5115965;28;20023;-75
2022/08/15 03:53:11;;;;;;;11.75;8.77;;;27.80;57.60;;;;;;5116104;28;20423;-76
2022/08/15 03:55:38;;;;;;;11.63;9.40;;;27.90;57.20;;;;;;5115811;28;20074;-75
2022/08/15 03:58:05;;;;;;;11.88;9.73;;;27.90;56.80;;;;;;5115718;28;20028;-75
2022/08/15 04:00:38;;;;;;;12.68;9.52;;;27.90;56.60;;;;;;5115899;28;20031;-76
2022/08/15 04:03:10;;;;;;;11.52;10.02;;;27.80;56.80;;;;;;5116093;28;20019;-76
2022/08/15 04:05:36;;;;;;;11.95;9.13;;;27.80;57.00;;;;;;5115888;28;20023;-75
2022/08/15 04:08:07;;;;;;;12.90;9.25;;;27.60;57.20;;;;;;5115764;28;20035;-75
2022/08/15 04:10:34;;;;;;;11.60;9.68;;;27.60;57.30;;;;;;5115703;28;20101;-77
2022/08/15 04:13:01;;;;;;;18.08;9.70;;;27.50;57.20;;;;;;5115948;28;20420;-76
2022/08/15 04:15:27;;;;;;;13.98;9.88;;;27.70;57.00;;;;;;5115570;28;20127;-76
2022/08/15 04:17:54;;;;;;;11.95;9.15;;;27.70;57.00;;;;;;5115346;28;20072;-76
2022/08/15 04:20:20;;;;;;;11.60;9.57;;;27.70;56.80;;;;;;5115604;28;20039;-75
2022/08/15 04:22:49;;;;;;;12.77;9.13;;;27.70;57.00;;;;;;5115469;28;20022;-75
2022/08/15 04:25:16;;;;;;;12.57;9.02;;;27.70;57.00;;;;;;5115386;28;20043;-75
2022/08/15 04:27:42;;;;;;;10.45;8.75;;;27.70;56.80;;;;;;5115492;28;20501;-76
2022/08/15 04:30:11;;;;;;;11.07;8.60;;;27.70;56.80;;;;;;5115442;28;20027;-76
2022/08/15 04:32:38;;;;;;;11.35;9.07;;;27.80;57.00;;;;;;5115138;28;20028;-76
2022/08/15 04:35:04;;;;;;;12.45;9.80;;;27.80;57.00;;;;;;5115184;28;20019;-75
2022/08/15 04:37:30;;;;;;;13.40;10.13;;;27.90;56.80;;;;;;5115112;28;20016;-75
2022/08/15 04:39:56;;;;;;;11.05;9.23;;;27.90;57.00;;;;;;5115030;28;20027;-75
2022/08/15 04:42:24;;;;;;;13.90;8.85;;;27.90;57.10;;;;;;5115150;28;20024;-76
2022/08/15 04:44:51;;;;;;;13.93;10.38;;;28.00;56.90;;;;;;5115337;28;20027;-76
2022/08/15 04:47:17;;;;;;;12.52;10.40;;;28.10;56.80;;;;;;5114963;28;20024;-76
2022/08/15 04:49:44;;;;;;;11.65;9.40;;;28.10;57.10;;;;;;5115125;28;20030;-75
2022/08/15 04:52:13;;;;;;;12.13;9.40;;;28.10;57.00;;;;;;5115033;28;20027;-75
2022/08/15 04:54:40;;;;;;;11.38;8.45;;;28.20;57.00;;;;;;5114672;28;20451;-75
2022/08/15 04:57:07;;;;;;;10.55;8.48;;;28.20;56.80;;;;;;5115048;28;20190;-75
2022/08/15 04:59:33;;;;;;;11.13;8.38;;;28.30;56.50;;;;;;5114694;28;20123;-75
2022/08/15 05:01:59;;;;;;;11.98;8.52;;;28.40;56.70;;;;;;5114735;28;20023;-77
2022/08/15 05:04:24;;;;;;;11.60;8.40;;;28.40;56.70;;;;;;5114587;28;20027;-76
2022/08/15 05:06:50;;;;;;;10.95;8.07;;;28.40;56.70;;;;;;5114677;28;20015;-76
2022/08/15 05:09:17;;;;;;;10.48;7.97;;;28.50;56.50;;;;;;5114562;28;20100;-76
2022/08/15 05:11:42;;;;;;;10.70;8.45;;;28.50;56.20;;;;;;5114195;28;20106;-75
2022/08/15 05:14:08;;;;;;;10.07;8.38;;;28.60;56.50;;;;;;5114678;28;20102;-76
2022/08/15 05:16:34;;;;;;;10.90;8.10;;;28.70;55.90;;;;;;5114486;28;20541;-76
2022/08/15 05:19:00;;;;;;;10.50;7.97;;;28.70;55.90;;;;;;5114516;28;20036;-75
2022/08/15 05:21:28;;;;;;;9.95;7.65;;;28.60;55.90;;;;;;5114005;28;20050;-75
2022/08/15 05:23:55;;;;;;;13.05;7.65;;;28.60;55.90;;;;;;5113871;28;20400;-75
2022/08/15 05:26:21;;;;;;;10.50;7.30;;;28.40;55.90;;;;;;5114184;28;20099;-74
2022/08/15 05:28:46;;;;;;;9.13;7.88;;;27.50;57.10;;;;;;5113719;28;20023;-75
2022/08/15 05:31:13;;;;;;;10.73;8.02;;;27.20;58.20;;;;;;5114385;28;20024;-75
2022/08/15 05:33:42;;;;;;;10.40;7.68;;;27.40;57.90;;;;;;5113805;28;20027;-75
2022/08/15 05:36:09;;;;;;;9.05;7.82;;;27.20;58.70;;;;;;5114024;28;20026;-76
2022/08/15 05:38:50;;;;;;;9.73;8.38;;;27.30;59.20;;;;;;5113910;28;20442;-75
2022/08/15 05:41:31;;;;;;;10.90;8.18;;;27.90;58.60;;;;;;5113702;28;20038;-76
2022/08/15 05:44:02;;;;;;;11.10;7.68;;;28.50;57.60;;;;;;5114020;28;20081;-75
2022/08/15 05:46:40;;;;;;;9.40;7.63;;;28.90;56.60;;;;;;5113815;28;20424;-76
2022/08/15 05:49:15;;;;;;;9.23;7.20;;;29.00;54.30;;;;;;5113598;28;20023;-76
2022/08/15 05:51:54;;;;;;;9.68;6.95;;;29.10;54.40;;;;;;5113644;28;20042;-75
2022/08/15 05:54:23;;;;;;;11.30;7.00;;;29.20;54.60;;;;;;5113791;28;20106;-75
2022/08/15 05:56:54;;;;;;;12.32;7.43;;;29.20;54.90;;;;;;5113472;28;20490;-75
2022/08/15 05:59:28;;;;;;;8.63;6.60;;;29.50;55.00;;;;;;5113740;28;20076;-76
2022/08/15 06:02:04;;;;;;;10.10;7.07;;;29.80;53.70;;;;;;5112606;28;20402;-75
2022/08/15 06:05:11;;;;;;;8.85;6.88;;;30.20;53.50;;;;;;5113153;28;20757;-75
2022/08/15 06:07:39;;;;;;;10.38;6.72;;;30.40;52.70;;;;;;5010974;28;20113;-75
2022/08/15 06:10:13;;;;;;;8.63;6.65;;;30.00;53.20;;;;;;5011072;28;20464;-75
2022/08/15 06:12:46;;;;;;;9.40;7.00;;;29.90;53.60;;;;;;5010863;28;20118;-75
2022/08/15 06:15:20;;;;;;;10.68;6.93;;;29.80;53.50;;;;;;4994868;28;20481;-75
2022/08/15 06:17:54;;;;;;;7.75;6.45;;;30.20;54.10;;;;;;5008800;28;20038;-74
2022/08/15 06:20:27;;;;;;;8.15;6.78;;;30.60;52.30;;;;;;5007428;28;20116;-75
2022/08/15 06:23:06;;;;;;;10.32;7.03;;;30.50;52.60;;;;;;5008107;28;20436;-76
2022/08/15 06:25:38;;;;;;;7.95;6.28;;;30.60;52.50;;;;;;5008175;28;20044;-75
2022/08/15 06:28:09;;;;;;;11.73;6.57;;;30.60;52.20;;;;;;5008284;28;20029;-76
2022/08/15 06:30:43;;;;;;;9.95;6.30;;;30.60;52.60;;;;;;5007997;28;20454;-75
2022/08/15 06:33:35;;;;;;;8.48;7.07;;;30.60;52.90;;;;;;5008913;28;20057;-76
2022/08/15 06:36:16;;;;;;;9.25;6.72;;;30.10;53.10;;;;;;5008813;28;20125;-75
2022/08/15 06:39:01;;;;;;;8.38;6.78;;;30.00;53.50;;;;;;5004139;28;20034;-75
2022/08/15 06:41:52;;;;;;;11.48;7.20;;;29.40;53.70;;;;;;5009832;28;20188;-78
2022/08/15 06:44:19;;;;;;;10.88;7.10;;;29.50;53.90;;;;;;5038742;28;20146;-76
2022/08/15 06:46:47;;;;;;;13.68;7.60;;;29.20;54.50;;;;;;5054184;28;20061;-75
2022/08/15 06:49:14;;;;;;;15.20;7.28;;;29.10;54.80;;;;;;4352425;28;10000735;-74
2022/08/15 06:51:41;;;;;;;13.60;7.95;;;29.60;54.40;;;;;;5030453;28;20069;-75
2022/08/15 06:54:22;;;;;;;9.05;7.18;;;30.40;54.20;;;;;;5030540;28;20034;-75
2022/08/15 06:56:51;;;;;;;11.65;7.50;;;30.40;53.90;;;;;;5030108;28;20119;-75
2022/08/15 06:59:42;;;;;;;11.93;7.22;;;30.70;54.10;;;;;;5029824;28;20042;-76
2022/08/15 07:02:27;;;;;;;11.40;8.07;;;31.10;52.90;;;;;;5029907;28;20050;-74
2022/08/15 07:05:10;;;;;;;11.95;8.18;;;31.60;52.90;;;;;;5030576;28;20032;-76
2022/08/15 07:07:50;;;;;;;10.75;9.05;;;31.80;52.20;;;;;;5030343;28;20064;-75
2022/08/15 07:10:48;;;;;;;11.73;7.90;;;32.00;52.40;;;;;;5029601;28;20029;-77
2022/08/15 07:13:19;;;;;;;11.10;7.50;;;31.90;52.90;;;;;;5029597;28;20118;-75
2022/08/15 07:15:56;;;;;;;9.25;7.20;;;31.70;53.60;;;;;;5029545;28;20030;-77
2022/08/15 07:18:30;;;;;;;9.65;7.30;;;31.30;53.80;;;;;;5029623;28;20076;-75
2022/08/15 07:21:02;;;;;;;8.13;7.15;;;31.20;54.60;;;;;;5039715;28;20029;-75
2022/08/15 07:23:30;;;;;;;10.13;6.97;;;31.00;54.60;;;;;;5093528;28;20519;-76
2022/08/15 07:26:02;;;;;;;10.60;7.00;;;30.60;55.20;;;;;;5112237;28;20042;-75
2022/08/15 07:28:30;;;;;;;9.18;7.45;;;30.90;54.80;;;;;;5112530;28;20068;-75
2022/08/15 07:30:59;;;;;;;13.60;7.82;;;30.90;54.20;;;;;;5112550;28;20046;-75
2022/08/15 07:33:37;;;;;;;11.60;7.10;;;30.90;53.80;;;;;;5112443;28;20057;-74
2022/08/15 07:36:05;;;;;;;9.98;7.53;;;30.70;54.40;;;;;;5111458;28;20035;-75
2022/08/15 07:38:32;;;;;;;9.80;7.60;;;30.80;54.10;;;;;;5112437;28;20050;-75
2022/08/15 07:41:33;;;;;;;9.40;7.25;;;31.00;54.40;;;;;;5113026;28;20042;-76
2022/08/15 07:44:19;;;;;;;13.60;7.05;;;30.70;54.40;;;;;;5112853;28;20367;-76
2022/08/15 07:47:01;;;;;;;12.15;7.60;;;30.80;54.00;;;;;;5110233;28;20031;-75
2022/08/15 07:49:31;;;;;;;10.73;6.78;;;31.00;53.30;;;;;;5111647;27;20455;-73
2022/08/15 07:52:15;;;;;;;11.73;7.55;;;31.10;53.70;;;;;;5109304;28;20110;-76
2022/08/15 07:54:41;;;;;;;9.98;7.20;;;31.70;53.80;;;;;;5093847;28;20052;-75
2022/08/15 07:57:33;;;;;;;11.95;8.13;;;31.70;52.90;;;;;;5094481;28;20107;-76
2022/08/15 08:00:21;;;;;;;10.10;7.28;;;31.60;53.50;;;;;;5093915;28;20058;-79
2022/08/15 08:02:47;;;;;;;10.88;8.05;;;31.60;52.70;;;;;;5089359;28;20398;-76
2022/08/15 08:05:12;;;;;;;11.70;7.60;;;31.60;53.20;;;;;;5095314;28;20483;-77
2022/08/15 08:07:48;;;;;;;10.52;7.75;;;32.10;53.70;;;;;;5095425;28;20042;-75
2022/08/15 08:10:19;;;;;;;9.43;7.50;;;32.60;52.20;;;;;;5095518;28;20024;-75
2022/08/15 08:13:04;;;;;;;12.80;7.43;;;33.00;51.80;;;;;;5093925;28;20016;-75
2022/08/15 08:15:35;;;;;;;9.90;7.65;;;33.10;52.10;;;;;;5093958;28;20020;-75
2022/08/15 08:18:15;;;;;;;9.23;7.30;;;32.90;51.50;;;;;;5076346;28;20449;-82
2022/08/15 08:21:01;;;;;;;8.38;6.88;;;32.60;51.80;;;;;;5094975;28;20042;-75
2022/08/15 08:23:39;;;;;;;11.77;6.85;;;32.30;52.60;;;;;;5095200;28;20055;-75
2022/08/15 08:26:26;;;;;;;10.85;7.38;;;32.70;53.40;;;;;;5095152;28;20473;-75
2022/08/15 08:29:11;;;;;;;9.15;7.25;;;32.60;52.40;;;;;;5095080;28;20459;-75
2022/08/15 08:32:05;;;;;;;8.15;7.13;;;33.00;52.40;;;;;;5094631;28;20093;-75
2022/08/15 08:34:58;;;;;;;8.35;7.05;;;33.20;53.00;;;;;;5094858;28;20020;-75
2022/08/15 08:37:37;;;;;;;10.07;7.57;;;33.30;52.60;;;;;;5012594;28;20505;-75
2022/08/15 08:43:39;;;;;;;8.77;7.07;;;33.70;51.30;;;;;;5012495;28;20053;-75
2022/08/15 08:46:40;;;;;;;10.13;7.32;;;33.90;51.60;;;;;;5012603;28;20056;-75
2022/08/15 08:49:42;;;;;;;8.77;7.15;;;33.90;52.10;;;;;;5012736;28;20038;-75
2022/08/15 08:52:11;;;;;;;8.57;7.22;;;33.90;51.10;;;;;;5012550;28;20101;-76
2022/08/15 08:54:59;;;;;;;11.13;7.53;;;34.30;50.90;;;;;;5011290;28;20038;-75
2022/08/15 08:57:32;;;;;;;9.48;7.32;;;34.70;51.20;;;;;;5012384;28;20069;-76
2022/08/15 09:00:13;;;;;;;10.23;7.30;;;34.80;50.40;;;;;;5012007;28;20068;-74
2022/08/15 09:02:47;;;;;;;13.25;7.70;;;34.90;50.70;;;;;;5012135;28;20034;-78
2022/08/15 09:05:51;;;;;;;11.55;7.13;;;35.20;48.90;;;;;;5011836;28;20049;-76
2022/08/15 09:08:41;;;;;;;10.75;7.30;;;35.20;49.80;;;;;;5006325;28;20050;-78
2022/08/15 09:11:18;;;;;;;9.80;7.18;;;35.40;48.80;;;;;;4995645;28;20115;-76
2022/08/15 09:13:45;;;;;;;9.73;6.97;;;35.20;49.90;;;;;;5022788;28;20040;-75
2022/08/15 09:16:16;;;;;;;8.40;6.43;;;35.40;48.80;;;;;;5073683;28;20048;-75
2022/08/15 09:18:55;;;;;;;10.77;6.55;;;35.70;49.20;;;;;;5073787;28;20072;-77
2022/08/15 09:21:21;;;;;;;8.80;6.45;;;35.60;47.50;;;;;;5073480;28;20032;-76
2022/08/15 09:23:48;;;;;;;8.80;6.13;;;35.40;48.00;;;;;;5073247;28;20039;-76
2022/08/15 09:26:35;;;;;;;11.10;5.70;;;35.70;48.80;;;;;;5073632;28;20025;-75
2022/08/15 09:29:07;;;;;;;7.70;6.25;;;34.80;47.80;;;;;;5073599;28;20031;-77
2022/08/15 09:31:37;;;;;;;7.22;6.07;;;35.00;48.10;;;;;;5073261;28;20028;-75
2022/08/15 09:34:22;;;;;;;9.80;6.40;;;35.50;47.60;;;;;;5073738;28;20021;-77
2022/08/15 09:37:13;;;;;;;8.60;6.28;;;35.80;47.40;;;;;;5073337;28;20024;-79
2022/08/15 09:40:19;;;;;;;10.85;6.72;;;36.10;48.40;;;;;;5056095;28;20395;-75
2022/08/15 09:43:06;;;;;;;9.75;6.50;;;36.10;48.00;;;;;;5011829;28;20528;-80
2022/08/15 09:45:39;;;;;;;7.75;6.32;;;36.20;48.30;;;;;;5012296;28;20057;-83
2022/08/15 09:48:14;;;;;;;7.55;6.20;;;36.30;47.40;;;;;;5011577;28;20025;-85
2022/08/15 09:51:29;;;;;;;7.72;5.53;;;36.50;47.20;;;;;;5011107;28;20028;-77
2022/08/15 09:54:00;;;;;;;8.27;5.20;;;36.70;47.10;;;;;;4323860;28;10000714;-76
2022/08/15 09:56:28;;;;;;;6.97;5.60;;;36.80;46.20;;;;;;5030397;28;20263;-79
2022/08/15 09:59:17;;;;;;;7.65;5.93;;;36.90;45.30;;;;;;5050770;28;20432;-78
2022/08/15 10:02:10;;;;;;;8.25;7.45;;;36.80;45.90;;;;;;5051112;28;20033;-78
2022/08/15 10:05:01;;;;;;;9.75;6.00;;;36.30;45.10;;;;;;5034085;28;20025;-79
2022/08/15 10:07:47;;;;;;;7.35;6.25;;;36.00;46.20;;;;;;5050480;28;20021;-75
2022/08/15 10:10:45;;;;;;;7.38;5.70;;;36.10;45.90;;;;;;5050846;28;20047;-75
2022/08/15 10:13:13;;;;;;;6.65;5.80;;;36.30;45.90;;;;;;5033820;28;20068;-77
2022/08/15 10:15:45;;;;;;;8.02;6.45;;;36.30;45.70;;;;;;5050671;28;20394;-75
2022/08/15 10:18:31;;;;;;;7.88;6.10;;;36.40;45.80;;;;;;5041498;28;20147;-76
2022/08/15 10:20:58;;;;;;;6.93;6.07;;;36.40;46.10;;;;;;5030506;28;20034;-76
2022/08/15 10:23:43;;;;;;;7.30;5.90;;;36.50;45.10;;;;;;5030847;28;20116;-75
2022/08/15 10:26:31;;;;;;;10.95;6.68;;;36.40;45.10;;;;;;5030523;28;20515;-75
2022/08/15 10:28:59;;;;;;;10.07;6.30;;;36.50;45.90;;;;;;5030585;28;20045;-76
2022/08/15 10:31:29;;;;;;;6.63;5.65;;;36.50;46.40;;;;;;5030591;28;20040;-76
2022/08/15 10:33:59;;;;;;;8.10;5.87;;;36.50;46.20;;;;;;5030673;28;20599;-77
2022/08/15 10:36:30;;;;;;;10.00;5.70;;;36.50;44.80;;;;;;5030579;28;20025;-76
2022/08/15 10:38:59;;;;;;;8.70;6.10;;;36.50;46.00;;;;;;5030170;28;20046;-75
2022/08/15 10:42:08;;;;;;;7.25;6.00;;;36.50;45.50;;;;;;5030540;28;20029;-76
2022/08/15 10:44:56;;;;;;;7.82;6.45;;;36.50;45.00;;;;;;5030402;28;20142;-76
2022/08/15 10:48:02;;;;;;;7.38;6.13;;;36.50;45.60;;;;;;5030446;28;20064;-77
2022/08/15 10:50:57;;;;;;;7.18;6.18;;;36.50;45.90;;;;;;5030141;28;20025;-75
2022/08/15 10:53:28;;;;;;;9.70;6.45;;;36.40;45.70;;;;;;4952259;29;20036;-76
2022/08/15 10:56:11;;;;;;;8.30;6.50;;;36.50;45.00;;;;;;4951898;29;20083;-75
2022/08/15 10:58:37;;;;;;;8.07;6.20;;;36.70;45.40;;;;;;4995328;28;20092;-75
2022/08/15 11:01:12;;;;;;;10.40;6.20;;;36.50;45.10;;;;;;5010378;28;20022;-77
2022/08/15 11:03:43;;;;;;;6.55;5.85;;;36.60;45.70;;;;;;5010432;28;20034;-75
2022/08/15 11:06:13;;;;;;;8.38;5.95;;;36.90;45.10;;;;;;5010430;28;20040;-78
2022/08/15 11:08:49;;;;;;;9.18;5.70;;;37.00;45.50;;;;;;5010788;28;20080;-77
2022/08/15 11:11:17;;;;;;;9.18;6.40;;;37.10;44.70;;;;;;5010720;28;20142;-76
2022/08/15 11:13:50;;;;;;;9.68;6.10;;;37.30;44.50;;;;;;5010351;28;20025;-77
2022/08/15 11:16:18;;;;;;;7.55;6.15;;;37.50;44.70;;;;;;5010701;28;20053;-76
2022/08/15 11:18:53;;;;;;;8.77;5.90;;;37.70;44.70;;;;;;5010605;28;20038;-75
2022/08/15 11:21:25;;;;;;;9.82;5.95;;;37.90;44.80;;;;;;5010450;28;20030;-75
2022/08/15 11:23:56;;;;;;;7.47;5.60;;;37.80;45.40;;;;;;4994292;28;20429;-77
2022/08/15 11:26:28;;;;;;;8.43;6.07;;;37.90;44.40;;;;;;5011191;28;20041;-85
2022/08/15 11:29:13;;;;;;;6.30;5.45;;;37.90;44.10;;;;;;5014304;28;20026;-75
2022/08/15 11:31:45;;;;;;;8.23;5.80;;;38.00;43.10;;;;;;5096053;28;20035;-74
2022/08/15 11:34:27;;;;;;;8.13;5.53;;;38.10;43.30;;;;;;5096107;28;20036;-76
2022/08/15 11:37:02;;;;;;;6.85;5.60;;;37.90;43.10;;;;;;5096029;28;20520;-76
2022/08/15 11:39:30;;;;;;;7.07;5.68;;;38.00;43.30;;;;;;5096172;28;20036;-76
2022/08/15 11:42:02;;;;;;;7.50;5.43;;;38.20;44.00;;;;;;5095977;28;20020;-76
2022/08/15 11:44:56;;;;;;;6.07;5.47;;;38.40;44.10;;;;;;5096002;28;20016;-77
2022/08/15 11:47:23;;;;;;;6.45;5.45;;;38.30;42.80;;;;;;5095746;28;20025;-76
2022/08/15 11:49:54;;;;;;;7.43;5.38;;;38.20;42.50;;;;;;5095674;28;20355;-86
2022/08/15 11:52:24;;;;;;;6.55;5.18;;;38.20;43.30;;;;;;5095871;28;20100;-77
2022/08/15 11:55:13;;;;;;;6.18;4.95;;;38.20;43.00;;;;;;5098381;28;20046;-77
2022/08/15 11:57:43;;;;;;;6.57;5.07;;;38.20;42.40;;;;;;5116276;28;20023;-76
2022/08/15 12:00:33;;;;;;;6.13;5.20;;;38.10;41.80;;;;;;5116243;28;20470;-77
2022/08/15 12:02:59;;;;;;;8.60;5.32;;;38.10;42.10;;;;;;5098250;28;20047;-79
2022/08/15 12:05:34;;;;;;;5.50;4.80;;;38.00;42.10;;;;;;5097721;28;20035;-74
2022/08/15 12:08:03;;;;;;;7.03;4.85;;;37.80;41.60;;;;;;5116124;28;20024;-79
2022/08/15 12:10:37;;;;;;;5.97;4.75;;;37.90;42.30;;;;;;5115664;28;20045;-82
2022/08/15 12:13:04;;;;;;;6.85;5.10;;;38.20;42.10;;;;;;5115670;28;20482;-76
2022/08/15 12:15:33;;;;;;;6.45;4.80;;;38.30;41.70;;;;;;5115785;28;20076;-78
2022/08/15 12:18:17;;;;;;;8.27;5.18;;;38.50;42.20;;;;;;5115428;28;20524;-81
2022/08/15 12:20:47;;;;;;;6.22;4.15;;;38.70;41.50;;;;;;5115737;28;20030;-80
2022/08/15 12:23:30;;;;;;;6.60;4.65;;;38.70;40.90;;;;;;5115363;28;20466;-75
2022/08/15 12:26:02;;;;;;;6.68;4.20;;;38.70;40.40;;;;;;5115619;28;20450;-75
2022/08/15 12:28:29;;;;;;;6.03;4.43;;;38.70;40.20;;;;;;5115209;28;20034;-77
2022/08/15 12:31:04;;;;;;;5.53;4.38;;;38.60;40.80;;;;;;5115421;28;20028;-75
2022/08/15 12:33:31;;;;;;;6.50;4.75;;;38.70;40.00;;;;;;5115305;28;20055;-76
2022/08/15 12:35:58;;;;;;;6.05;4.95;;;38.60;40.10;;;;;;5115389;28;20026;-76
2022/08/15 12:38:24;;;;;;;7.13;4.72;;;38.30;40.70;;;;;;5115087;28;20031;-74
2022/08/15 12:40:50;;;;;;;7.38;4.38;;;38.20;41.10;;;;;;5115389;28;20042;-76
2022/08/15 12:43:17;;;;;;;8.80;4.47;;;38.00;40.50;;;;;;5115107;28;20359;-75
2022/08/15 12:45:44;;;;;;;9.32;4.30;;;38.00;40.50;;;;;;5115281;28;20031;-76
2022/08/15 12:48:29;;;;;;;5.38;4.40;;;38.00;40.50;;;;;;5096819;28;20020;-75
2022/08/15 12:50:55;;;;;;;10.68;4.72;;;38.00;40.30;;;;;;5115165;28;20024;-76
2022/08/15 12:53:21;;;;;;;5.60;4.30;;;38.10;39.90;;;;;;5115069;28;20080;-81
2022/08/15 12:55:48;;;;;;;6.78;4.28;;;38.40;40.30;;;;;;5114603;28;20044;-78
2022/08/15 12:58:16;;;;;;;6.90;3.90;;;38.10;39.50;;;;;;5114797;28;20028;-77
2022/08/15 13:00:44;;;;;;;6.50;4.50;;;38.00;40.20;;;;;;5115042;28;20447;-74
2022/08/15 13:03:23;;;;;;;6.07;4.32;;;37.90;39.90;;;;;;5114587;28;20036;-76
2022/08/15 13:06:00;;;;;;;7.40;4.32;;;37.20;41.30;;;;;;5096320;28;20118;-76
2022/08/15 13:08:25;;;;;;;7.18;4.40;;;37.00;40.70;;;;;;5096181;28;20023;-77
2022/08/15 13:10:51;;;;;;;4.80;4.00;;;37.30;40.60;;;;;;5114746;28;20024;-81
2022/08/15 13:13:17;;;;;;;5.97;4.40;;;37.10;40.60;;;;;;5114177;28;20034;-76
2022/08/15 13:15:43;;;;;;;6.22;4.43;;;37.30;40.60;;;;;;5114427;28;20054;-78
2022/08/15 13:18:15;;;;;;;5.53;4.65;;;37.90;40.30;;;;;;5114276;28;20462;-77